createdAt,value
2022-12-13T00:01:52.874Z,97168.63
2022-12-13T00:04:24.286Z,97164.41
2022-12-13T00:06:53.931Z,97160.16
2022-12-13T00:09:23.267Z,97163.78
2022-12-13T00:11:54.763Z,97174.94
2022-12-13T00:14:23.029Z,97170.84
2022-12-13T00:16:52.141Z,97167.59
2022-12-13T00:19:21.339Z,97165.13
2022-12-13T00:21:50.063Z,97166.91
2022-12-13T00:24:18.299Z,97163.53
2022-12-13T00:26:46.888Z,97161.94
2022-12-13T00:29:16.722Z,97163.75
2022-12-13T00:31:59.270Z,97156.06
2022-12-13T00:34:29.610Z,97156.19
2022-12-13T00:36:59.698Z,97145.16
2022-12-13T00:39:28.427Z,97149.53
2022-12-13T00:41:56.755Z,97145.28
2022-12-13T00:44:26.635Z,97140.31
2022-12-13T00:46:54.896Z,97145.34
2022-12-13T00:49:23.238Z,97155.94
2022-12-13T00:51:51.474Z,97141.47
2022-12-13T00:54:19.763Z,97146.56
2022-12-13T00:56:48.006Z,97143.97
2022-12-13T00:59:16.821Z,97144.03
2022-12-13T01:01:46.501Z,97137.34
2022-12-13T01:04:15.192Z,97145.09
2022-12-13T01:06:46.828Z,97142.56
2022-12-13T01:09:19.454Z,97148.66
2022-12-13T01:11:48.846Z,97143.47
2022-12-13T01:14:18.516Z,97141.72
2022-12-13T01:16:48.267Z,97137.53
2022-12-13T01:19:17.376Z,97141.03
2022-12-13T01:21:45.693Z,97141.91
2022-12-13T01:24:14.040Z,97131.56
2022-12-13T01:26:42.317Z,97123.94
2022-12-13T01:29:11.428Z,97124.88
2022-12-13T01:31:41.681Z,97118.91
2022-12-13T01:34:12.374Z,97124.25
2022-12-13T01:36:41.593Z,97112.34
2022-12-13T01:39:15.111Z,97114.09
2022-12-13T01:41:45.532Z,97108.09
2022-12-13T01:44:59.276Z,97115.97
2022-12-13T01:47:33.229Z,97112.66
2022-12-13T01:50:08.980Z,97103.19
2022-12-13T01:52:37.930Z,97110.06
2022-12-13T01:55:09.989Z,97103.25
2022-12-13T01:57:45.447Z,97106.81
2022-12-13T02:00:15.967Z,97104.22
2022-12-13T02:02:44.443Z,97108.66
2022-12-13T02:05:22.990Z,97105.34
2022-12-13T02:07:51.884Z,97111.44
2022-12-13T02:10:20.642Z,97111.56
2022-12-13T02:12:49.137Z,97103.94
2022-12-13T02:15:19.961Z,97108.19
2022-12-13T02:18:07.965Z,97104.84
2022-12-13T02:21:07.765Z,97105.88
2022-12-13T02:24:29.183Z,97100.88
2022-12-13T02:27:14.132Z,97101.00
2022-12-13T02:30:24.505Z,97102.06
2022-12-13T02:33:40.247Z,97102.25
2022-12-13T02:36:14.721Z,97098.06
2022-12-13T02:38:55.278Z,97096.44
2022-12-13T02:41:36.211Z,97096.38
2022-12-13T02:44:22.466Z,97093.88
2022-12-13T02:46:56.811Z,97092.22
2022-12-13T02:49:29.639Z,97091.41
2022-12-13T02:51:59.107Z,97088.81
2022-12-13T02:54:27.367Z,97093.06
2022-12-13T02:56:56.602Z,97093.00
2022-12-13T02:59:29.220Z,97091.16
2022-12-13T03:02:12.850Z,97090.25
2022-12-13T03:05:20.761Z,97090.31
2022-12-13T03:08:13.014Z,97088.56
2022-12-13T03:10:55.167Z,97089.34
2022-12-13T03:13:38.887Z,97076.44
2022-12-13T03:16:22.574Z,97078.19
2022-12-13T03:18:54.443Z,97076.38
2022-12-13T03:21:22.895Z,97069.47
2022-12-13T03:23:51.375Z,97069.47
2022-12-13T03:26:23.967Z,97073.78
2022-12-13T03:28:53.829Z,97072.91
2022-12-13T03:31:22.813Z,97070.38
2022-12-13T03:33:52.492Z,97072.31
2022-12-13T03:36:21.821Z,97078.25
2022-12-13T03:38:52.377Z,97078.31
2022-12-13T03:41:24.478Z,97067.31
2022-12-13T03:43:52.848Z,97066.47
2022-12-13T03:46:21.188Z,97052.81
2022-12-13T03:48:49.523Z,97058.09
2022-12-13T03:51:19.114Z,97046.94
2022-12-13T03:53:47.460Z,97050.38
2022-12-13T03:56:15.784Z,97045.06
2022-12-13T03:58:44.208Z,97051.84
2022-12-13T04:01:15.862Z,97040.59
2022-12-13T04:03:47.322Z,97039.78
2022-12-13T04:06:22.347Z,97041.47
2022-12-13T04:08:52.354Z,97046.50
2022-12-13T04:11:43.049Z,97043.00
2022-12-13T04:14:12.321Z,97038.63
2022-12-13T04:16:50.902Z,97035.19
2022-12-13T04:19:22.947Z,97025.00
2022-12-13T04:21:54.729Z,97033.53
2022-12-13T04:24:31.025Z,97030.03
2022-12-13T04:27:01.029Z,97024.19
2022-12-13T04:29:34.166Z,97031.97
2022-12-13T04:32:04.777Z,97033.66
2022-12-13T04:34:37.640Z,97038.88
2022-12-13T04:37:07.683Z,97031.19
2022-12-13T04:39:36.256Z,97027.88
2022-12-13T04:42:05.474Z,97031.38
2022-12-13T04:44:36.883Z,97031.50
2022-12-13T04:47:05.973Z,97032.41
2022-12-13T04:49:35.116Z,97030.66
2022-12-13T04:52:03.998Z,97026.41
2022-12-13T04:54:36.663Z,97024.69
2022-12-13T04:57:12.154Z,97025.56
2022-12-13T04:59:41.450Z,97020.41
2022-12-13T05:02:11.640Z,97020.41
2022-12-13T05:04:40.101Z,97016.94
2022-12-13T05:07:08.649Z,97019.53
2022-12-13T05:09:38.296Z,97023.78
2022-12-13T05:12:22.769Z,97016.88
2022-12-13T05:14:52.151Z,97018.59
2022-12-13T05:17:21.200Z,97020.28
2022-12-13T05:19:49.487Z,97013.31
2022-12-13T05:22:20.826Z,97021.00
2022-12-13T05:24:50.888Z,97018.16
2022-12-13T05:27:24.949Z,97010.34
2022-12-13T05:30:03.308Z,97015.44
2022-12-13T05:32:43.871Z,97017.13
2022-12-13T05:35:14.214Z,97015.31
2022-12-13T05:37:53.314Z,97023.91
2022-12-13T05:40:24.096Z,97020.34
2022-12-13T05:43:01.397Z,97020.28
2022-12-13T05:45:31.093Z,97027.06
2022-12-13T05:47:59.798Z,97028.72
2022-12-13T05:50:28.097Z,97031.19
2022-12-13T05:52:56.382Z,97020.72
2022-12-13T05:55:26.030Z,97018.88
2022-12-13T05:57:54.246Z,97023.91
2022-12-13T06:00:31.214Z,97031.50
2022-12-13T06:03:00.477Z,97023.63
2022-12-13T06:05:30.153Z,97015.69
2022-12-13T06:07:58.920Z,97019.06
2022-12-13T06:10:34.865Z,97020.66
2022-12-13T06:13:09.336Z,97016.13
2022-12-13T06:15:51.116Z,97011.72
2022-12-13T06:18:20.021Z,97009.06
2022-12-13T06:20:58.520Z,97009.78
2022-12-13T06:23:27.101Z,97012.19
2022-12-13T06:25:56.742Z,97009.59
2022-12-13T06:28:24.959Z,97019.72
2022-12-13T06:30:53.372Z,97017.81
2022-12-13T06:33:23.390Z,97024.56
2022-12-13T06:35:52.681Z,97016.59
2022-12-13T06:38:31.106Z,97029.38
2022-12-13T06:41:11.537Z,97015.47
2022-12-13T06:43:42.792Z,97027.28
2022-12-13T06:46:11.851Z,97024.56
2022-12-13T06:48:41.573Z,97027.00
2022-12-13T06:51:10.581Z,97025.13
2022-12-13T06:53:40.893Z,97020.72
2022-12-13T06:56:14.184Z,97024.06
2022-12-13T06:58:43.794Z,97018.75
2022-12-13T07:01:23.952Z,97015.19
2022-12-13T07:03:55.854Z,97021.22
2022-12-13T07:06:27.406Z,97027.22
2022-12-13T07:08:58.592Z,97025.53
2022-12-13T07:11:30.926Z,97019.47
2022-12-13T07:14:00.088Z,97021.28
2022-12-13T07:16:29.909Z,97020.34
2022-12-13T07:19:01.053Z,97023.84
2022-12-13T07:21:30.917Z,97019.53
2022-12-13T07:23:59.563Z,97017.88
2022-12-13T07:26:29.345Z,97025.69
2022-12-13T07:28:58.193Z,97020.53
2022-12-13T07:31:27.904Z,97012.84
2022-12-13T07:33:56.323Z,97026.66
2022-12-13T07:36:25.142Z,97023.25
2022-12-13T07:38:55.462Z,97027.50
2022-12-13T07:41:24.524Z,97030.03
2022-12-13T07:43:55.446Z,97025.63
2022-12-13T07:46:33.068Z,97026.44
2022-12-13T07:49:03.496Z,97022.13
2022-12-13T07:51:33.736Z,97015.28
2022-12-13T07:54:06.353Z,97005.69
2022-12-13T07:56:35.384Z,97010.84
2022-12-13T07:59:05.127Z,97005.09
2022-12-13T08:01:34.713Z,97009.19
2022-12-13T08:04:03.480Z,97012.53
2022-12-13T08:06:36.077Z,97010.78
2022-12-13T08:09:05.771Z,97009.13
2022-12-13T08:11:34.525Z,97004.69
2022-12-13T08:14:04.450Z,97016.66
2022-12-13T08:16:32.843Z,97023.38
2022-12-13T08:19:04.386Z,97030.13
2022-12-13T08:21:55.095Z,97031.84
2022-12-13T08:24:25.288Z,97032.59
2022-12-13T08:26:53.574Z,97024.81
2022-12-13T08:29:34.820Z,97031.63
2022-12-13T08:32:06.068Z,97028.13
2022-12-13T08:34:34.361Z,97032.44
2022-12-13T08:37:04.043Z,97021.22
2022-12-13T08:39:35.344Z,97025.31
2022-12-13T08:42:16.170Z,97032.09
2022-12-13T08:44:49.207Z,97020.06
2022-12-13T08:47:24.481Z,97028.53
2022-12-13T08:49:55.977Z,97018.13
2022-12-13T08:52:30.881Z,97015.25
2022-12-13T08:54:59.225Z,97021.88
2022-12-13T08:57:27.473Z,97018.22
2022-12-13T08:59:57.055Z,97007.66
2022-12-13T09:02:25.625Z,97012.53
2022-12-13T09:04:54.175Z,97003.91
2022-12-13T09:07:22.458Z,97024.09
2022-12-13T09:09:54.804Z,97023.00
2022-12-13T09:12:30.300Z,97027.94
2022-12-13T09:15:01.996Z,97026.09
2022-12-13T09:17:37.207Z,97031.91
2022-12-13T09:20:10.259Z,97036.09
2022-12-13T09:23:01.174Z,97026.44
2022-12-13T09:25:37.213Z,97030.53
2022-12-13T09:28:09.333Z,97021.78
2022-12-13T09:30:40.138Z,97032.44
2022-12-13T09:33:28.258Z,97031.22
2022-12-13T09:35:56.821Z,97028.00
2022-12-13T09:38:25.148Z,97016.22
2022-12-13T09:40:59.210Z,97008.31
2022-12-13T09:43:33.474Z,97009.78
2022-12-13T09:46:23.777Z,97007.56
2022-12-13T09:49:01.771Z,96994.91
2022-12-13T09:51:43.019Z,96989.88
2022-12-13T09:54:20.170Z,96989.06
2022-12-13T09:56:51.206Z,96984.78
2022-12-13T09:59:22.657Z,96979.44
2022-12-13T10:01:52.410Z,96980.19
2022-12-13T10:04:20.860Z,96986.00
2022-12-13T10:06:54.356Z,96973.69
2022-12-13T10:09:23.161Z,96968.28
2022-12-13T10:11:54.037Z,96968.16
2022-12-13T10:14:27.857Z,96957.88
2022-12-13T10:17:01.729Z,96951.22
2022-12-13T10:19:36.939Z,96957.78
2022-12-13T10:22:09.448Z,96952.16
2022-12-13T10:24:52.231Z,96940.44
2022-12-13T10:27:28.647Z,96941.25
2022-12-13T10:30:11.839Z,96927.31
2022-12-13T10:32:55.101Z,96928.00
2022-12-13T10:35:27.379Z,96920.00
2022-12-13T10:37:57.636Z,96918.16
2022-12-13T10:40:34.205Z,96914.88
2022-12-13T10:43:21.988Z,96915.34
2022-12-13T10:46:01.463Z,96917.63
2022-12-13T10:48:39.996Z,96925.13
2022-12-13T10:51:11.654Z,96923.13
2022-12-13T10:53:47.820Z,96914.00
2022-12-13T10:56:23.015Z,96914.84
2022-12-13T10:59:16.605Z,96913.31
2022-12-13T11:01:45.920Z,96917.81
2022-12-13T11:04:28.415Z,96916.16
2022-12-13T11:06:58.466Z,96911.25
2022-12-13T11:09:30.302Z,96909.09
2022-12-13T11:12:16.329Z,96912.03
2022-12-13T11:14:55.569Z,96907.75
2022-12-13T11:17:27.634Z,96905.34
2022-12-13T11:20:02.055Z,96901.31
2022-12-13T11:22:32.425Z,96904.16
2022-12-13T11:25:04.584Z,96905.44
2022-12-13T11:28:02.146Z,96898.25
2022-12-13T11:30:38.834Z,96898.72
2022-12-13T11:33:19.931Z,96897.97
2022-12-13T11:36:04.620Z,96899.25
2022-12-13T11:38:41.633Z,96897.81
2022-12-13T11:41:32.168Z,96897.94
2022-12-13T11:44:08.566Z,96886.13
2022-12-13T11:46:43.705Z,96893.38
2022-12-13T11:49:18.052Z,96890.13
2022-12-13T11:51:53.364Z,96882.63
2022-12-13T11:54:30.379Z,96887.38
2022-12-13T11:57:05.130Z,96881.53
2022-12-13T11:59:40.803Z,96886.97
2022-12-13T12:02:21.647Z,96888.22
2022-12-13T12:04:59.635Z,96891.28
2022-12-13T12:07:44.622Z,96881.88
2022-12-13T12:10:35.924Z,96884.91
2022-12-13T12:13:14.908Z,96874.91
2022-12-13T12:15:55.101Z,96876.06
2022-12-13T12:18:24.124Z,96878.16
2022-12-13T12:21:13.872Z,96872.66
2022-12-13T12:24:00.885Z,96871.41
2022-12-13T12:26:38.385Z,96863.16
2022-12-13T12:29:35.143Z,96859.94
2022-12-13T12:32:17.527Z,96855.03
2022-12-13T12:34:53.865Z,96859.53
2022-12-13T12:37:34.443Z,96856.28
2022-12-13T12:41:07.095Z,96855.66
2022-12-13T12:43:32.301Z,96859.53
2022-12-13T12:46:25.530Z,96866.63
2022-12-13T12:49:30.769Z,96858.09
2022-12-13T12:52:06.662Z,96864.47
2022-12-13T12:54:46.460Z,96864.66
2022-12-13T12:57:24.934Z,96859.56
2022-12-13T13:00:04.572Z,96851.09
2022-12-13T13:02:41.812Z,96846.84
2022-12-13T13:05:20.596Z,96850.34
2022-12-13T13:07:55.677Z,96860.78
2022-12-13T13:10:26.274Z,96859.03
2022-12-13T13:13:12.514Z,96854.75
2022-12-13T13:15:58.275Z,96856.53
2022-12-13T13:18:51.166Z,96857.47
2022-12-13T13:21:46.002Z,96862.03
2022-12-13T13:24:24.241Z,96861.59
2022-12-13T13:26:56.549Z,96859.84
2022-12-13T13:29:44.254Z,96861.59
2022-12-13T13:32:30.218Z,96860.91
2022-12-13T13:35:51.079Z,96863.72
2022-12-13T13:38:53.200Z,96862.13
2022-12-13T13:41:56.317Z,96870.03
2022-12-13T13:44:54.141Z,96860.66
2022-12-13T13:47:44.496Z,96873.78
2022-12-13T13:50:46.580Z,96873.06
2022-12-13T13:54:10.066Z,96880.97
2022-12-13T13:58:07.680Z,96881.16
2022-12-13T14:00:24.750Z,96874.41
2022-12-13T14:03:44.241Z,96871.91
2022-12-13T14:07:00.730Z,96878.25
2022-12-13T14:09:59.775Z,96874.09
2022-12-13T14:13:04.972Z,96875.94
2022-12-13T14:16:31.656Z,96888.22
2022-12-13T14:19:58.660Z,96880.72
2022-12-13T14:22:36.184Z,96888.00
2022-12-13T14:25:51.225Z,96868.28
2022-12-13T14:28:34.248Z,96876.41
2022-12-13T14:31:03.084Z,96868.91
2022-12-13T14:33:31.612Z,96878.50
2022-12-13T14:36:03.703Z,96875.13
2022-12-13T14:38:33.548Z,96865.03
2022-12-13T14:41:05.976Z,96867.53
2022-12-13T14:43:36.568Z,96870.34
2022-12-13T14:46:08.207Z,96868.88
2022-12-13T14:48:43.634Z,96861.25
2022-12-13T14:51:33.293Z,96864.16
2022-12-13T14:54:03.818Z,96855.69
2022-12-13T14:56:32.144Z,96852.38
2022-12-13T14:59:03.749Z,96860.47
2022-12-13T15:01:34.373Z,96868.47
2022-12-13T15:04:27.267Z,96870.53
2022-12-13T15:07:06.424Z,96880.28
2022-12-13T15:09:39.475Z,96880.47
2022-12-13T15:12:23.520Z,96885.88
2022-12-13T15:14:59.710Z,96878.34
2022-12-13T15:17:34.747Z,96882.94
2022-12-13T15:20:09.381Z,96879.59
2022-12-13T15:22:39.146Z,96877.16
2022-12-13T15:25:08.272Z,96872.16
2022-12-13T15:27:36.848Z,96875.03
2022-12-13T15:30:06.465Z,96874.31
2022-12-13T15:32:34.737Z,96881.38
2022-12-13T15:35:17.413Z,96871.25
2022-12-13T15:37:48.425Z,96867.19
2022-12-13T15:40:16.857Z,96870.88
2022-12-13T15:42:47.988Z,96875.28
2022-12-13T15:45:22.947Z,96874.50
2022-12-13T15:47:51.995Z,96877.41
2022-12-13T15:50:35.077Z,96877.50
2022-12-13T15:53:08.070Z,96874.22
2022-12-13T15:55:37.950Z,96880.38
2022-12-13T15:58:27.197Z,96877.88
2022-12-13T16:00:55.523Z,96871.09
2022-12-13T16:03:26.211Z,96875.44
2022-12-13T16:05:57.344Z,96874.69
2022-12-13T16:08:31.898Z,96869.63
2022-12-13T16:11:01.043Z,96877.50
2022-12-13T16:13:31.927Z,96873.22
2022-12-13T16:16:08.826Z,96871.47
2022-12-13T16:18:47.141Z,96874.16
2022-12-13T16:21:15.549Z,96875.91
2022-12-13T16:23:48.195Z,96872.50
2022-12-13T16:26:24.024Z,96875.19
2022-12-13T16:28:52.387Z,96881.28
2022-12-13T16:31:26.050Z,96877.78
2022-12-13T16:33:54.497Z,96871.75
2022-12-13T16:36:22.808Z,96873.50
2022-12-13T16:38:52.561Z,96875.09
2022-12-13T16:41:22.039Z,96870.72
2022-12-13T16:43:56.680Z,96875.00
2022-12-13T16:47:13.709Z,96874.06
2022-12-13T16:49:22.329Z,96874.16
2022-12-13T16:51:50.653Z,96874.25
2022-12-13T16:54:22.352Z,96877.69
2022-12-13T16:56:51.732Z,96871.84
2022-12-13T16:59:22.912Z,96877.69
2022-12-13T17:01:51.495Z,96870.81
2022-12-13T17:04:22.470Z,96866.47
2022-12-13T17:06:54.931Z,96871.66
2022-12-13T17:09:25.956Z,96866.47
2022-12-13T17:11:54.441Z,96858.75
2022-12-13T17:14:22.736Z,96854.41
2022-12-13T17:16:51.065Z,96862.19
2022-12-13T17:19:19.750Z,96850.13
2022-12-13T17:21:48.227Z,96854.50
2022-12-13T17:24:16.486Z,96860.41
2022-12-13T17:26:54.434Z,96848.25
2022-12-13T17:29:24.634Z,96844.00
2022-12-13T17:31:53.318Z,96841.50
2022-12-13T17:34:21.621Z,96844.09
2022-12-13T17:36:49.880Z,96845.84
2022-12-13T17:39:18.352Z,96841.41
2022-12-13T17:41:55.154Z,96832.66
2022-12-13T17:44:25.315Z,96827.47
2022-12-13T17:46:55.071Z,96827.47
2022-12-13T17:49:24.295Z,96818.03
2022-12-13T17:51:54.098Z,96817.19
2022-12-13T17:54:23.902Z,96815.50
2022-12-13T17:56:54.736Z,96816.31
2022-12-13T17:59:23.725Z,96818.13
2022-12-13T18:01:52.577Z,96807.81
2022-12-13T18:04:21.798Z,96805.22
2022-12-13T18:06:51.355Z,96802.09
2022-12-13T18:09:20.598Z,96800.16
2022-12-13T18:11:48.998Z,96816.94
2022-12-13T18:14:18.633Z,96809.72
2022-12-13T18:16:46.914Z,96812.63
2022-12-13T18:19:15.363Z,96819.97
2022-12-13T18:21:44.277Z,96818.41
2022-12-13T18:24:13.258Z,96817.72
2022-12-13T18:26:41.628Z,96818.09
2022-12-13T18:29:10.342Z,96827.13
2022-12-13T18:31:40.063Z,96821.34
2022-12-13T18:34:09.502Z,96822.00
2022-12-13T18:36:39.495Z,96824.50
2022-12-13T18:39:07.927Z,96820.16
2022-12-13T18:41:36.297Z,96813.16
2022-12-13T18:44:07.937Z,96814.88
2022-12-13T18:46:43.365Z,96812.25
2022-12-13T18:49:14.470Z,96817.47
2022-12-13T18:51:42.831Z,96824.31
2022-12-13T18:54:11.177Z,96821.72
2022-12-13T18:56:39.471Z,96827.66
2022-12-13T18:59:07.818Z,96819.78
2022-12-13T19:01:36.221Z,96819.78
2022-12-13T19:04:06.306Z,96823.19
2022-12-13T19:06:34.677Z,96814.59
2022-12-13T19:09:02.988Z,96819.97
2022-12-13T19:11:32.089Z,96803.72
2022-12-13T19:14:00.463Z,96809.84
2022-12-13T19:16:29.148Z,96808.16
2022-12-13T19:18:58.820Z,96811.59
2022-12-13T19:21:28.523Z,96817.72
2022-12-13T19:24:01.185Z,96815.03
2022-12-13T19:26:30.700Z,96815.13
2022-12-13T19:29:00.412Z,96811.59
2022-12-13T19:31:32.158Z,96808.81
2022-12-13T19:34:01.647Z,96806.22
2022-12-13T19:36:33.642Z,96801.97
2022-12-13T19:39:02.136Z,96794.00
2022-12-13T19:41:33.513Z,96793.16
2022-12-13T19:44:04.648Z,96792.22
2022-12-13T19:46:33.339Z,96782.75
2022-12-13T19:49:02.015Z,96770.63
2022-12-13T19:51:37.482Z,96769.78
2022-12-13T19:54:08.221Z,96771.53
2022-12-13T19:56:36.528Z,96772.47
2022-12-13T19:59:05.216Z,96774.13
2022-12-13T20:01:33.945Z,96777.56
2022-12-13T20:04:02.667Z,96777.66
2022-12-13T20:06:32.442Z,96768.19
2022-12-13T20:09:00.857Z,96765.59
2022-12-13T20:11:29.922Z,96756.97
2022-12-13T20:13:59.305Z,96750.13
2022-12-13T20:16:28.260Z,96749.28
2022-12-13T20:18:57.880Z,96744.91
2022-12-13T20:21:27.215Z,96750.94
2022-12-13T20:23:57.719Z,96733.78
2022-12-13T20:26:29.398Z,96738.97
2022-12-13T20:28:58.302Z,96742.41
2022-12-13T20:31:31.277Z,96743.22
2022-12-13T20:34:02.442Z,96738.97
2022-12-13T20:36:32.893Z,96726.00
2022-12-13T20:39:05.398Z,96722.53
2022-12-13T20:41:36.489Z,96719.22
2022-12-13T20:44:07.719Z,96716.72
2022-12-13T20:46:36.618Z,96724.44
2022-12-13T20:49:08.623Z,96717.56
2022-12-13T20:51:38.712Z,96725.25
2022-12-13T20:54:08.853Z,96718.38
2022-12-13T20:56:39.157Z,96720.97
2022-12-13T20:59:11.463Z,96713.09
2022-12-13T21:01:41.722Z,96707.06
2022-12-13T21:04:12.201Z,96706.16
2022-12-13T21:06:42.352Z,96695.75
2022-12-13T21:09:13.224Z,96690.56
2022-12-13T21:11:43.580Z,96693.06
2022-12-13T21:14:21.322Z,96689.72
2022-12-13T21:16:52.745Z,96682.59
2022-12-13T21:19:23.135Z,96678.22
2022-12-13T21:21:52.302Z,96664.41
2022-12-13T21:24:24.532Z,96658.28
2022-12-13T21:26:53.170Z,96659.13
2022-12-13T21:29:21.507Z,96658.28
2022-12-13T21:31:51.040Z,96656.63
2022-12-13T21:34:22.724Z,96654.75
2022-12-13T21:36:53.832Z,96656.63
2022-12-13T21:39:27.808Z,96662.72
2022-12-13T21:41:56.537Z,96662.00
2022-12-13T21:44:25.153Z,96656.06
2022-12-13T21:49:42.060Z,96645.88
2022-12-13T21:52:17.245Z,96640.75
2022-12-13T21:54:46.946Z,96644.41
2022-12-13T21:57:32.543Z,96649.69
2022-12-13T22:00:00.789Z,96648.94
2022-12-13T22:02:29.108Z,96652.38
2022-12-13T22:04:59.321Z,96651.63
2022-12-13T22:07:30.014Z,96650.63
2022-12-13T22:10:01.858Z,96635.13
2022-12-13T22:12:35.876Z,96638.44
2022-12-13T22:15:05.719Z,96629.84
2022-12-13T22:17:36.022Z,96632.34
2022-12-13T22:20:06.350Z,96634.94
2022-12-13T22:22:34.856Z,96622.88
2022-12-13T22:25:04.834Z,96613.34
2022-12-13T22:27:33.214Z,96609.78
2022-12-13T22:30:01.456Z,96614.19
2022-12-13T22:32:32.171Z,96609.78
2022-12-13T22:35:00.644Z,96606.38
2022-12-13T22:37:29.641Z,96603.88
2022-12-13T22:39:57.930Z,96599.50
2022-12-13T22:42:27.594Z,96596.09
2022-12-13T22:44:55.805Z,96612.50
2022-12-13T22:47:24.096Z,96611.47
2022-12-13T22:49:52.343Z,96596.81
2022-12-13T22:52:20.587Z,96601.91
2022-12-13T22:54:48.779Z,96600.16
2022-12-13T22:57:17.050Z,96594.97
2022-12-13T22:59:46.660Z,96590.72
2022-12-13T23:02:15.094Z,96595.81
2022-12-13T23:04:43.463Z,96591.53
2022-12-13T23:07:11.672Z,96604.41
2022-12-13T23:09:40.064Z,96591.53
2022-12-13T23:12:25.974Z,96598.31
2022-12-13T23:14:55.588Z,96600.16
2022-12-13T23:17:23.803Z,96599.59
2022-12-13T23:19:53.418Z,96596.00
2022-12-13T23:22:23.690Z,96587.28
2022-12-13T23:24:52.599Z,96581.13
2022-12-13T23:27:22.961Z,96581.88
2022-12-13T23:29:51.576Z,96581.88
2022-12-13T23:32:21.200Z,96587.81
2022-12-13T23:34:49.392Z,96585.22
2022-12-13T23:37:17.679Z,96587.72
2022-12-13T23:39:45.915Z,96566.81
2022-12-13T23:42:14.197Z,96562.38
2022-12-13T23:44:43.388Z,96558.94
2022-12-13T23:47:11.698Z,96545.94
2022-12-13T23:49:41.264Z,96548.53
2022-12-13T23:52:09.520Z,96535.47
2022-12-13T23:54:37.834Z,96536.41
2022-12-13T23:57:06.172Z,96519.97
2022-12-13T23:59:34.408Z,96522.56
